Time;durP1;ratioP1;P1;durP2;ratioP2;P2;SDS_P1;SDS_P2;PMS_P1;PMS_P2;Temp;Humidity;BMP_temperature;BMP_pressure;BME280_temperature;BME280_humidity;BME280_pressure;Samples;Min_cycle;Max_cycle;Signal;HPM_P1;HPM_P2
2024/03/07 00:02:20;;;;;;;24.73;17.55;;;;;;;;;;5069545;28;20387;-62
2024/03/07 00:04:45;;;;;;;25.50;18.85;;;;;;;;;;5069622;28;20048;-63
2024/03/07 00:07:11;;;;;;;22.38;15.60;;;;;;;;;;5070090;28;20505;-62
2024/03/07 00:09:36;;;;;;;24.98;17.17;;;;;;;;;;5069745;28;20127;-62
2024/03/07 00:12:02;;;;;;;23.55;17.05;;;;;;;;;;5070040;28;20048;-69
2024/03/07 00:14:28;;;;;;;23.70;18.17;;;;;;;;;;5071180;28;20062;-69
2024/03/07 00:16:54;;;;;;;22.90;15.50;;;;;;;;;;5070833;28;20064;-68
2024/03/07 00:19:19;;;;;;;23.48;16.35;;;;;;;;;;5070473;28;20036;-68
2024/03/07 00:21:45;;;;;;;21.23;14.90;;;;;;;;;;5070199;28;20025;-68
2024/03/07 00:24:10;;;;;;;23.15;15.63;;;;;;;;;;5068708;28;20032;-68
2024/03/07 00:26:36;;;;;;;20.65;15.77;;;;;;;;;;5071273;28;20040;-68
2024/03/07 00:29:02;;;;;;;26.67;17.80;;;;;;;;;;5073686;28;20033;-68
2024/03/07 00:31:29;;;;;;;25.35;17.17;;;;;;;;;;5073125;28;20040;-68
2024/03/07 00:33:56;;;;;;;23.60;16.17;;;;;;;;;;5073069;28;20488;-68
2024/03/07 00:36:22;;;;;;;24.80;17.08;;;;;;;;;;5071759;28;20025;-68
2024/03/07 00:38:47;;;;;;;25.80;17.10;;;;;;;;;;5073484;28;20479;-66
2024/03/07 00:41:12;;;;;;;24.85;16.95;;;;;;;;;;5072931;28;20056;-66
2024/03/07 00:43:38;;;;;;;22.63;16.27;;;;;;;;;;5072752;28;20387;-66
2024/03/07 00:46:06;;;;;;;25.92;17.90;;;;;;;;;;5072860;28;20035;-66
2024/03/07 00:48:32;;;;;;;27.15;16.38;;;;;;;;;;5071587;28;20058;-66
2024/03/07 00:50:57;;;;;;;30.77;20.17;;;;;;;;;;5073283;28;20729;-66
2024/03/07 00:53:23;;;;;;;23.77;16.83;;;;;;;;;;5073561;28;20134;-66
2024/03/07 00:55:48;;;;;;;29.08;18.05;;;;;;;;;;5073087;28;20033;-66
2024/03/07 00:58:13;;;;;;;28.48;19.90;;;;;;;;;;5071748;28;20112;-66
2024/03/07 01:00:42;;;;;;;26.10;18.95;;;;;;;;;;5073093;28;20017;-66
2024/03/07 01:03:11;;;;;;;26.77;18.38;;;;;;;;;;5072263;28;20044;-66
2024/03/07 01:05:37;;;;;;;25.58;17.40;;;;;;;;;;5070994;28;20047;-67
2024/03/07 01:08:02;;;;;;;27.15;19.25;;;;;;;;;;5071352;28;20047;-67
2024/03/07 01:10:28;;;;;;;27.00;19.40;;;;;;;;;;5072386;28;20561;-67
2024/03/07 01:12:57;;;;;;;28.83;20.45;;;;;;;;;;5071223;28;20127;-67
2024/03/07 01:15:23;;;;;;;29.40;20.75;;;;;;;;;;5071714;28;20040;-63
2024/03/07 01:17:48;;;;;;;27.48;18.45;;;;;;;;;;5073491;28;20008;-66
2024/03/07 01:20:14;;;;;;;28.08;19.08;;;;;;;;;;5055740;28;20039;-67
2024/03/07 01:22:40;;;;;;;29.80;20.02;;;;;;;;;;5074074;28;20115;-67
2024/03/07 01:25:06;;;;;;;30.05;19.45;;;;;;;;;;5073274;28;20040;-62
2024/03/07 01:27:32;;;;;;;25.63;16.65;;;;;;;;;;5073691;28;20108;-68
2024/03/07 01:29:57;;;;;;;29.02;18.35;;;;;;;;;;5073917;28;20132;-68
2024/03/07 01:32:26;;;;;;;32.17;22.10;;;;;;;;;;5072055;28;20033;-68
2024/03/07 01:34:51;;;;;;;28.27;18.67;;;;;;;;;;5072654;28;20411;-69
2024/03/07 01:37:16;;;;;;;27.55;19.05;;;;;;;;;;5072104;28;20036;-70
2024/03/07 01:39:42;;;;;;;28.65;18.42;;;;;;;;;;5072368;28;20090;-69
2024/03/07 01:42:08;;;;;;;32.65;21.42;;;;;;;;;;5072456;28;20028;-69
2024/03/07 01:44:33;;;;;;;35.35;24.33;;;;;;;;;;5071127;28;20039;-69
2024/03/07 01:47:02;;;;;;;29.13;18.75;;;;;;;;;;5072377;28;20044;-68
2024/03/07 01:49:29;;;;;;;32.08;22.23;;;;;;;;;;5072125;28;20032;-66
2024/03/07 01:51:54;;;;;;;35.47;22.38;;;;;;;;;;5072122;28;20012;-65
2024/03/07 01:54:20;;;;;;;30.38;20.17;;;;;;;;;;5070305;28;20435;-65
2024/03/07 01:56:45;;;;;;;36.50;22.58;;;;;;;;;;5071520;28;20020;-66
2024/03/07 01:59:12;;;;;;;44.50;26.42;;;;;;;;;;5069752;28;20531;-66
2024/03/07 02:01:37;;;;;;;44.78;27.75;;;;;;;;;;5071099;28;20100;-66
2024/03/07 02:04:04;;;;;;;41.92;27.63;;;;;;;;;;5054166;28;20127;-66
2024/03/07 02:06:29;;;;;;;48.38;28.90;;;;;;;;;;5071368;28;20562;-66
2024/03/07 02:08:55;;;;;;;33.55;21.88;;;;;;;;;;5071495;28;20032;-65
2024/03/07 02:11:21;;;;;;;37.63;26.17;;;;;;;;;;5071998;28;20067;-65
2024/03/07 02:13:47;;;;;;;37.00;25.45;;;;;;;;;;5071620;28;20056;-66
2024/03/07 02:16:13;;;;;;;36.97;22.95;;;;;;;;;;5070370;28;20562;-67
2024/03/07 02:18:39;;;;;;;34.15;22.42;;;;;;;;;;5071585;28;20102;-67
2024/03/07 02:21:08;;;;;;;33.83;23.15;;;;;;;;;;5070310;28;20502;-66
2024/03/07 02:23:34;;;;;;;31.03;20.83;;;;;;;;;;5071674;28;20107;-68
2024/03/07 02:26:00;;;;;;;40.97;27.33;;;;;;;;;;5071642;28;20139;-68
2024/03/07 02:28:25;;;;;;;27.75;20.05;;;;;;;;;;5071447;28;20388;-69
2024/03/07 02:30:51;;;;;;;30.48;22.27;;;;;;;;;;5071396;28;20492;-69
2024/03/07 02:33:16;;;;;;;29.15;18.98;;;;;;;;;;5071347;28;20048;-68
2024/03/07 02:35:42;;;;;;;30.13;18.90;;;;;;;;;;5070738;28;20049;-68
2024/03/07 02:38:08;;;;;;;30.15;19.27;;;;;;;;;;5069930;28;20028;-65
2024/03/07 02:40:34;;;;;;;28.52;18.48;;;;;;;;;;5072565;28;20028;-65
2024/03/07 02:42:59;;;;;;;26.08;18.90;;;;;;;;;;5070902;28;20050;-64
2024/03/07 02:45:25;;;;;;;28.52;19.33;;;;;;;;;;5052933;28;20048;-64
2024/03/07 02:47:53;;;;;;;27.48;19.48;;;;;;;;;;5070483;28;20115;-63
2024/03/07 02:50:20;;;;;;;25.63;17.83;;;;;;;;;;5070997;28;20116;-63
2024/03/07 02:52:45;;;;;;;24.30;18.88;;;;;;;;;;5071309;28;20067;-67
2024/03/07 02:55:11;;;;;;;25.70;17.83;;;;;;;;;;5071648;28;20044;-63
2024/03/07 02:57:36;;;;;;;25.00;17.50;;;;;;;;;;5072234;28;20081;-63
2024/03/07 03:00:03;;;;;;;25.67;16.73;;;;;;;;;;5068792;28;20069;-63
2024/03/07 03:02:28;;;;;;;24.40;18.25;;;;;;;;;;5070241;28;20060;-63
2024/03/07 03:04:54;;;;;;;24.25;17.05;;;;;;;;;;5070538;28;20059;-64
2024/03/07 03:07:20;;;;;;;22.42;16.40;;;;;;;;;;5069269;28;20245;-64
2024/03/07 03:09:45;;;;;;;25.17;16.38;;;;;;;;;;5068763;28;20492;-64
2024/03/07 03:12:11;;;;;;;27.55;17.27;;;;;;;;;;5070304;28;20074;-63
2024/03/07 03:14:36;;;;;;;24.63;17.40;;;;;;;;;;5070630;28;20396;-63
2024/03/07 03:17:02;;;;;;;23.65;16.17;;;;;;;;;;5070524;28;20028;-63
2024/03/07 03:19:28;;;;;;;25.60;17.13;;;;;;;;;;5069287;28;20064;-62
2024/03/07 03:21:55;;;;;;;21.27;17.77;;;;;;;;;;5070635;28;20125;-63
2024/03/07 03:24:21;;;;;;;26.25;16.55;;;;;;;;;;5070638;28;20032;-62
2024/03/07 03:26:46;;;;;;;22.60;16.88;;;;;;;;;;5068792;28;20038;-62
2024/03/07 03:29:13;;;;;;;19.30;14.02;;;;;;;;;;5069875;28;20028;-62
2024/03/07 03:31:39;;;;;;;23.58;15.90;;;;;;;;;;5070080;28;20578;-63
2024/03/07 03:34:05;;;;;;;18.45;13.50;;;;;;;;;;5069047;28;20119;-67
2024/03/07 03:36:30;;;;;;;18.58;12.60;;;;;;;;;;5070055;28;20167;-67
2024/03/07 03:38:56;;;;;;;20.35;14.35;;;;;;;;;;5070028;28;20032;-67
2024/03/07 03:41:22;;;;;;;21.42;14.32;;;;;;;;;;5071937;28;20032;-66
2024/03/07 03:43:48;;;;;;;20.98;15.05;;;;;;;;;;5070688;28;20033;-67
2024/03/07 03:46:14;;;;;;;18.73;14.30;;;;;;;;;;5071338;28;20055;-62
2024/03/07 03:48:40;;;;;;;21.15;15.80;;;;;;;;;;5072363;28;20040;-62
2024/03/07 03:51:09;;;;;;;19.50;14.43;;;;;;;;;;5053357;28;20441;-62
2024/03/07 03:53:37;;;;;;;21.30;15.18;;;;;;;;;;5069787;28;20479;-61
2024/03/07 03:56:04;;;;;;;16.95;13.02;;;;;;;;;;5069038;28;20052;-61
2024/03/07 03:58:30;;;;;;;20.63;14.77;;;;;;;;;;5070069;28;20025;-61
2024/03/07 04:00:55;;;;;;;21.58;15.52;;;;;;;;;;5071883;28;20439;-62
2024/03/07 04:03:21;;;;;;;21.60;15.23;;;;;;;;;;5073824;28;20029;-62
2024/03/07 04:05:46;;;;;;;22.10;15.60;;;;;;;;;;5073810;28;20119;-63
2024/03/07 04:08:12;;;;;;;21.60;15.20;;;;;;;;;;5072361;28;20029;-62
2024/03/07 04:10:38;;;;;;;19.70;14.80;;;;;;;;;;5073531;28;20468;-63
2024/03/07 04:13:03;;;;;;;24.73;15.35;;;;;;;;;;5074287;28;20425;-63
2024/03/07 04:15:30;;;;;;;24.50;18.35;;;;;;;;;;5072880;28;20025;-63
2024/03/07 04:17:56;;;;;;;25.75;17.80;;;;;;;;;;5074157;28;20119;-62
2024/03/07 04:20:22;;;;;;;25.63;17.63;;;;;;;;;;5073943;28;20103;-62
2024/03/07 04:22:48;;;;;;;22.30;15.23;;;;;;;;;;5072637;28;20531;-62
2024/03/07 04:25:16;;;;;;;23.58;17.55;;;;;;;;;;5073938;28;20029;-62
2024/03/07 04:27:42;;;;;;;21.73;15.07;;;;;;;;;;5072819;28;20071;-62
2024/03/07 04:30:09;;;;;;;26.48;17.02;;;;;;;;;;5073796;28;20456;-62
2024/03/07 04:32:35;;;;;;;24.30;17.20;;;;;;;;;;5073777;28;20119;-61
2024/03/07 04:35:03;;;;;;;22.27;15.32;;;;;;;;;;5071970;28;20029;-62
2024/03/07 04:37:29;;;;;;;23.42;16.40;;;;;;;;;;5071384;28;20035;-62
2024/03/07 04:39:55;;;;;;;21.48;15.80;;;;;;;;;;5073864;28;20099;-62
2024/03/07 04:42:21;;;;;;;21.65;16.00;;;;;;;;;;5077440;28;20453;-63
2024/03/07 04:44:46;;;;;;;23.38;16.05;;;;;;;;;;5076317;28;20108;-66
2024/03/07 04:47:12;;;;;;;24.27;18.17;;;;;;;;;;5075419;28;20484;-67
2024/03/07 04:49:37;;;;;;;23.10;16.65;;;;;;;;;;5076544;28;20427;-66
2024/03/07 04:52:03;;;;;;;25.77;18.70;;;;;;;;;;5076542;28;20129;-67
2024/03/07 04:54:29;;;;;;;24.92;18.15;;;;;;;;;;5074056;28;20040;-68
2024/03/07 04:56:55;;;;;;;26.80;18.55;;;;;;;;;;5076105;28;20033;-64
2024/03/07 04:59:21;;;;;;;25.80;17.88;;;;;;;;;;5076560;28;20077;-65
2024/03/07 05:01:47;;;;;;;26.30;19.73;;;;;;;;;;5075742;28;20104;-65
2024/03/07 05:04:13;;;;;;;24.02;16.13;;;;;;;;;;5076449;28;20029;-65
2024/03/07 05:06:39;;;;;;;23.60;16.75;;;;;;;;;;5076234;28;20048;-65
2024/03/07 05:09:06;;;;;;;30.70;19.95;;;;;;;;;;5074592;28;20468;-65
2024/03/07 05:11:33;;;;;;;26.08;20.00;;;;;;;;;;5073651;28;20464;-64
2024/03/07 05:13:58;;;;;;;26.45;18.55;;;;;;;;;;5073047;28;20036;-65
2024/03/07 05:16:24;;;;;;;28.80;18.13;;;;;;;;;;5074982;28;20051;-64
2024/03/07 05:18:50;;;;;;;25.38;19.60;;;;;;;;;;5074543;28;20029;-64
2024/03/07 05:21:37;;;;;;;28.15;19.20;;;;;;;;;;5073766;28;20024;-64
2024/03/07 05:24:03;;;;;;;25.88;17.67;;;;;;;;;;5073830;28;20052;-65
2024/03/07 05:26:33;;;;;;;25.42;19.42;;;;;;;;;;5074709;28;20028;-65
2024/03/07 05:28:59;;;;;;;25.70;18.33;;;;;;;;;;5076071;28;20032;-65
2024/03/07 05:31:24;;;;;;;24.58;18.23;;;;;;;;;;5075690;28;20499;-64
2024/03/07 05:33:50;;;;;;;26.80;18.60;;;;;;;;;;5057659;28;20039;-63
2024/03/07 05:36:15;;;;;;;26.92;18.73;;;;;;;;;;5076027;28;20487;-63
2024/03/07 05:38:43;;;;;;;23.60;16.50;;;;;;;;;;5075761;28;20023;-64
2024/03/07 05:41:10;;;;;;;23.27;18.80;;;;;;;;;;5076049;28;20028;-64
2024/03/07 05:43:36;;;;;;;25.08;17.30;;;;;;;;;;5075534;28;20020;-64
2024/03/07 05:46:02;;;;;;;24.77;18.13;;;;;;;;;;5076090;28;20024;-64
2024/03/07 05:48:27;;;;;;;23.48;17.08;;;;;;;;;;5075655;28;20095;-64
2024/03/07 05:50:53;;;;;;;23.55;17.73;;;;;;;;;;5075993;28;20078;-64
2024/03/07 05:53:18;;;;;;;22.50;17.80;;;;;;;;;;5075665;28;20380;-63
2024/03/07 05:55:45;;;;;;;23.35;18.27;;;;;;;;;;5074387;28;20448;-64
2024/03/07 05:58:12;;;;;;;28.48;20.17;;;;;;;;;;5075084;28;20055;-64
2024/03/07 06:00:37;;;;;;;23.58;16.90;;;;;;;;;;5075568;28;20032;-63
2024/03/07 06:03:08;;;;;;;22.85;17.55;;;;;;;;;;5075747;28;20116;-66
2024/03/07 06:05:33;;;;;;;25.20;17.10;;;;;;;;;;5075737;28;20036;-64
2024/03/07 06:08:00;;;;;;;24.00;17.13;;;;;;;;;;5074885;28;20021;-63
2024/03/07 06:10:25;;;;;;;28.60;21.67;;;;;;;;;;5073659;28;20037;-63
2024/03/07 06:12:54;;;;;;;39.75;28.67;;;;;;;;;;5073544;28;20380;-64
2024/03/07 06:15:20;;;;;;;72.03;57.85;;;;;;;;;;5074694;28;20037;-64
2024/03/07 06:17:46;;;;;;;28.10;22.27;;;;;;;;;;5074932;28;20066;-64
2024/03/07 06:20:22;;;;;;;24.90;17.00;;;;;;;;;;5075014;28;20029;-64
2024/03/07 06:22:51;;;;;;;24.85;17.58;;;;;;;;;;5073932;28;20029;-64
2024/03/07 06:25:20;;;;;;;24.35;17.90;;;;;;;;;;5074951;28;20033;-64
2024/03/07 06:27:48;;;;;;;24.63;17.45;;;;;;;;;;5074533;28;20055;-64
2024/03/07 06:30:17;;;;;;;24.48;18.55;;;;;;;;;;5073261;28;20040;-64
2024/03/07 06:32:43;;;;;;;23.88;17.52;;;;;;;;;;5073846;28;20048;-64
2024/03/07 06:35:09;;;;;;;23.35;18.80;;;;;;;;;;5073765;28;20071;-64
2024/03/07 06:37:35;;;;;;;27.55;19.92;;;;;;;;;;5073541;28;20437;-63
2024/03/07 06:40:00;;;;;;;29.70;20.27;;;;;;;;;;5072280;28;20111;-64
2024/03/07 06:42:26;;;;;;;23.13;17.67;;;;;;;;;;5072406;28;20021;-64
2024/03/07 06:44:51;;;;;;;23.75;19.85;;;;;;;;;;5072343;28;20041;-63
2024/03/07 06:47:17;;;;;;;25.13;19.27;;;;;;;;;;5072299;28;20035;-63
2024/03/07 06:49:43;;;;;;;26.70;19.58;;;;;;;;;;5070942;28;20036;-63
2024/03/07 06:52:08;;;;;;;27.00;18.88;;;;;;;;;;5072944;28;20563;-63
2024/03/07 06:54:34;;;;;;;23.73;18.92;;;;;;;;;;5072685;28;20119;-63
2024/03/07 06:56:59;;;;;;;27.23;22.10;;;;;;;;;;5074087;28;20055;-63
2024/03/07 06:59:25;;;;;;;29.10;22.23;;;;;;;;;;5074282;28;20024;-63
2024/03/07 07:01:51;;;;;;;27.52;19.50;;;;;;;;;;5073977;28;20021;-63
2024/03/07 07:04:16;;;;;;;38.30;29.27;;;;;;;;;;5074222;28;20163;-63
2024/03/07 07:06:42;;;;;;;28.35;21.20;;;;;;;;;;5072573;28;20028;-63
2024/03/07 07:09:08;;;;;;;26.98;20.92;;;;;;;;;;5074129;28;20047;-63
2024/03/07 07:11:34;;;;;;;34.70;23.85;;;;;;;;;;5073843;28;20033;-64
2024/03/07 07:14:02;;;;;;;27.67;21.08;;;;;;;;;;5074051;28;20380;-64
2024/03/07 07:16:29;;;;;;;41.50;29.95;;;;;;;;;;5074227;28;20033;-64
2024/03/07 07:18:55;;;;;;;45.13;31.00;;;;;;;;;;5068859;22;20081;-59
2024/03/07 07:21:21;;;;;;;28.98;22.02;;;;;;;;;;5033751;28;20057;-59
2024/03/07 07:23:46;;;;;;;53.38;33.55;;;;;;;;;;5033691;28;20485;-59
2024/03/07 07:26:12;;;;;;;29.40;20.65;;;;;;;;;;5033665;28;20389;-59
2024/03/07 07:28:37;;;;;;;30.33;22.20;;;;;;;;;;5032376;28;20037;-59
2024/03/07 07:31:04;;;;;;;32.08;24.08;;;;;;;;;;5033634;28;20113;-59
2024/03/07 07:33:31;;;;;;;72.35;61.17;;;;;;;;;;5032261;28;20488;-59
2024/03/07 07:35:56;;;;;;;241.70;173.93;;;;;;;;;;5032981;28;20444;-59
2024/03/07 07:38:22;;;;;;;60.03;46.25;;;;;;;;;;5033584;28;20117;-59
2024/03/07 07:40:47;;;;;;;27.10;20.08;;;;;;;;;;5033600;28;20048;-59
2024/03/07 07:43:13;;;;;;;32.85;25.67;;;;;;;;;;5033501;28;20386;-59
2024/03/07 07:45:39;;;;;;;25.73;18.00;;;;;;;;;;5032174;28;20061;-59
2024/03/07 07:48:04;;;;;;;30.67;23.15;;;;;;;;;;5033502;28;20036;-59
2024/03/07 07:50:30;;;;;;;27.83;21.52;;;;;;;;;;5033653;28;20444;-59
2024/03/07 07:52:57;;;;;;;38.65;28.00;;;;;;;;;;5033499;28;20037;-59
2024/03/07 07:55:29;;;;;;;34.03;23.77;;;;;;;;;;5033351;28;20029;-59
2024/03/07 07:57:55;;;;;;;38.03;28.80;;;;;;;;;;5033345;28;20088;-59
2024/03/07 08:00:22;;;;;;;29.52;23.33;;;;;;;;;;5033399;28;20140;-59
2024/03/07 08:02:51;;;;;;;26.88;20.98;;;;;;;;;;5033452;28;20032;-59
2024/03/07 08:05:18;;;;;;;26.45;19.77;;;;;;;;;;5033337;28;20474;-59
2024/03/07 08:07:44;;;;;;;39.15;29.27;;;;;;;;;;5033283;28;20104;-59
2024/03/07 08:10:10;;;;;;;36.45;27.98;;;;;;;;;;5033214;28;20064;-59
2024/03/07 08:12:36;;;;;;;39.53;29.80;;;;;;;;;;5033513;28;20049;-59
2024/03/07 08:15:03;;;;;;;36.83;26.20;;;;;;;;;;5072498;22;20060;-63
2024/03/07 08:17:29;;;;;;;35.00;25.05;;;;;;;;;;5071994;28;20025;-63
2024/03/07 08:19:54;;;;;;;34.67;25.98;;;;;;;;;;5073631;28;20036;-63
2024/03/07 08:22:19;;;;;;;33.08;23.52;;;;;;;;;;5088670;28;20489;-64
2024/03/07 08:24:45;;;;;;;31.95;22.38;;;;;;;;;;5073360;28;20388;-64
2024/03/07 08:27:11;;;;;;;30.58;22.80;;;;;;;;;;5073311;28;20112;-64
2024/03/07 08:29:36;;;;;;;33.05;25.42;;;;;;;;;;5073075;28;20074;-64
2024/03/07 08:32:02;;;;;;;26.77;19.83;;;;;;;;;;5072937;28;20028;-64
2024/03/07 08:34:28;;;;;;;29.02;21.45;;;;;;;;;;5088469;28;20036;-64
2024/03/07 08:36:53;;;;;;;104.00;56.72;;;;;;;;;;5072944;28;20100;-64
2024/03/07 08:39:19;;;;;;;30.25;22.83;;;;;;;;;;5073223;28;20419;-64
2024/03/07 08:41:46;;;;;;;37.72;27.55;;;;;;;;;;5071663;28;20017;-64
2024/03/07 08:44:13;;;;;;;40.08;27.27;;;;;;;;;;5072895;28;20025;-64
2024/03/07 08:46:38;;;;;;;35.45;26.13;;;;;;;;;;5073795;28;20388;-64
2024/03/07 08:49:05;;;;;;;28.08;21.92;;;;;;;;;;5076715;28;20037;-64
2024/03/07 08:51:31;;;;;;;27.05;18.17;;;;;;;;;;5076450;28;20028;-64
2024/03/07 08:53:56;;;;;;;26.70;18.70;;;;;;;;;;5076948;28;20025;-64
2024/03/07 08:56:22;;;;;;;25.52;20.02;;;;;;;;;;5076263;28;20388;-64
2024/03/07 08:58:48;;;;;;;25.88;19.90;;;;;;;;;;5077474;28;20028;-64
2024/03/07 09:01:13;;;;;;;29.58;21.88;;;;;;;;;;5078761;28;20028;-64
2024/03/07 09:03:39;;;;;;;27.02;20.60;;;;;;;;;;5078871;28;20120;-64
2024/03/07 09:06:05;;;;;;;24.58;19.55;;;;;;;;;;5076127;28;20100;-64
2024/03/07 09:08:31;;;;;;;27.30;21.23;;;;;;;;;;5076469;28;20120;-64
2024/03/07 09:10:57;;;;;;;25.38;19.13;;;;;;;;;;5076064;28;20480;-63
2024/03/07 09:13:23;;;;;;;26.80;20.48;;;;;;;;;;5076284;28;20031;-64
2024/03/07 09:15:48;;;;;;;26.83;18.90;;;;;;;;;;5085819;28;20044;-64
2024/03/07 09:18:14;;;;;;;24.40;20.20;;;;;;;;;;5096157;28;20025;-64
2024/03/07 09:20:40;;;;;;;24.05;18.08;;;;;;;;;;5100953;22;20059;-59
2024/03/07 09:23:06;;;;;;;25.13;18.60;;;;;;;;;;5075856;28;20095;-59
2024/03/07 09:25:32;;;;;;;26.08;19.40;;;;;;;;;;5057966;28;20106;-59
2024/03/07 09:28:01;;;;;;;27.20;19.45;;;;;;;;;;5075783;28;20032;-59
2024/03/07 09:30:27;;;;;;;25.42;20.33;;;;;;;;;;5076275;28;20040;-59
2024/03/07 09:32:56;;;;;;;24.42;20.98;;;;;;;;;;5057763;28;20430;-59
2024/03/07 09:35:21;;;;;;;27.02;18.80;;;;;;;;;;5075529;28;20111;-59
2024/03/07 09:37:47;;;;;;;23.08;19.77;;;;;;;;;;5057618;28;20024;-59
2024/03/07 09:40:13;;;;;;;24.60;19.52;;;;;;;;;;5075803;28;20060;-59
2024/03/07 09:42:44;;;;;;;25.55;18.50;;;;;;;;;;5075501;28;20056;-59
2024/03/07 09:45:10;;;;;;;25.88;20.90;;;;;;;;;;5075710;28;20114;-59
2024/03/07 09:47:36;;;;;;;25.58;18.98;;;;;;;;;;5057433;28;20481;-59
2024/03/07 09:50:02;;;;;;;26.15;19.23;;;;;;;;;;5075625;28;20024;-59
2024/03/07 09:52:29;;;;;;;26.05;19.45;;;;;;;;;;5075568;28;20428;-59
2024/03/07 09:54:54;;;;;;;25.27;18.92;;;;;;;;;;5057198;28;20127;-60
2024/03/07 09:57:20;;;;;;;43.83;26.00;;;;;;;;;;5075082;28;20056;-59
2024/03/07 09:59:46;;;;;;;65.95;37.38;;;;;;;;;;5075687;28;20052;-59
2024/03/07 10:02:13;;;;;;;56.60;30.92;;;;;;;;;;5075045;28;20387;-59
2024/03/07 10:04:40;;;;;;;91.13;47.35;;;;;;;;;;5074980;28;20111;-59
2024/03/07 10:07:11;;;;;;;40.30;29.67;;;;;;;;;;5057053;28;20442;-59
2024/03/07 10:09:37;;;;;;;;;;;;;;;;;;5075349;28;20020;-59
2024/03/07 10:12:04;;;;;;;26.45;19.90;;;;;;;;;;5074865;28;20322;-59
2024/03/07 10:14:32;;;;;;;28.17;20.33;;;;;;;;;;5074994;28;20029;-60
2024/03/07 10:16:58;;;;;;;23.83;20.15;;;;;;;;;;5073507;28;20024;-59
2024/03/07 10:19:25;;;;;;;25.13;18.40;;;;;;;;;;5074766;28;20469;-59
2024/03/07 10:21:51;;;;;;;23.35;18.95;;;;;;;;;;5074508;28;20032;-59
2024/03/07 10:24:17;;;;;;;25.85;19.15;;;;;;;;;;5074583;28;20030;-59
2024/03/07 10:26:43;;;;;;;26.65;19.90;;;;;;;;;;5056775;28;20095;-59
2024/03/07 10:29:08;;;;;;;28.55;20.42;;;;;;;;;;5056794;28;20036;-59
2024/03/07 10:31:34;;;;;;;27.08;20.60;;;;;;;;;;5074502;28;20476;-59
2024/03/07 10:34:01;;;;;;;23.50;16.42;;;;;;;;;;5074420;28;20030;-59
2024/03/07 10:36:28;;;;;;;24.88;19.20;;;;;;;;;;5074367;28;20032;-59
2024/03/07 10:38:55;;;;;;;27.98;22.02;;;;;;;;;;5074341;28;20028;-59
2024/03/07 10:41:22;;;;;;;24.75;18.02;;;;;;;;;;5074857;28;20052;-59
2024/03/07 10:43:49;;;;;;;26.33;18.45;;;;;;;;;;5074553;28;20082;-59
2024/03/07 10:46:16;;;;;;;24.50;18.58;;;;;;;;;;5074787;28;20100;-59
2024/03/07 10:48:45;;;;;;;25.05;19.45;;;;;;;;;;5094272;22;20052;-58
2024/03/07 10:51:18;;;;;;;24.17;18.65;;;;;;;;;;5054711;28;20425;-59
2024/03/07 10:53:59;;;;;;;24.60;17.70;;;;;;;;;;5054678;28;20368;-59
2024/03/07 10:56:24;;;;;;;;;;;;;;;;;;5054705;28;20086;-58
2024/03/07 10:58:50;;;;;;;26.55;19.17;;;;;;;;;;5054057;28;20336;-59
2024/03/07 11:01:18;;;;;;;26.48;20.95;;;;;;;;;;5053972;28;20492;-63
2024/03/07 11:03:44;;;;;;;25.05;17.98;;;;;;;;;;5053958;28;20047;-63
2024/03/07 11:06:11;;;;;;;29.40;19.25;;;;;;;;;;5054453;28;20033;-63
2024/03/07 11:08:37;;;;;;;26.40;18.67;;;;;;;;;;5053903;28;20021;-63
2024/03/07 11:11:08;;;;;;;34.08;25.70;;;;;;;;;;5053812;28;20028;-63
2024/03/07 11:13:41;;;;;;;31.15;20.27;;;;;;;;;;5054081;28;20091;-63
2024/03/07 11:16:10;;;;;;;37.67;26.02;;;;;;;;;;5054248;28;20420;-63
2024/03/07 11:18:35;;;;;;;25.95;18.67;;;;;;;;;;5053703;28;20461;-63
2024/03/07 11:21:02;;;;;;;24.83;18.92;;;;;;;;;;5053692;28;20075;-63
2024/03/07 11:23:28;;;;;;;32.33;23.48;;;;;;;;;;5053667;28;20056;-63
2024/03/07 11:26:09;;;;;;;40.58;32.35;;;;;;;;;;5053570;28;20045;-63
2024/03/07 11:28:37;;;;;;;30.92;24.02;;;;;;;;;;5054186;28;20381;-63
2024/03/07 11:31:24;;;;;;;85.03;61.05;;;;;;;;;;5053598;28;20473;-63
2024/03/07 11:34:10;;;;;;;29.17;19.92;;;;;;;;;;5053549;28;20036;-63
2024/03/07 11:36:45;;;;;;;33.95;24.25;;;;;;;;;;5053944;28;20040;-63
2024/03/07 11:39:31;;;;;;;46.03;31.95;;;;;;;;;;5053455;28;20028;-63
2024/03/07 11:41:56;;;;;;;26.70;18.52;;;;;;;;;;5036255;28;20039;-63
2024/03/07 11:44:22;;;;;;;26.88;18.52;;;;;;;;;;5053668;28;20030;-63
2024/03/07 11:46:48;;;;;;;43.90;27.33;;;;;;;;;;5035546;28;20051;-63
2024/03/07 11:49:15;;;;;;;30.45;19.75;;;;;;;;;;5053266;28;20052;-63
2024/03/07 11:51:41;;;;;;;50.50;30.13;;;;;;;;;;5053634;28;20469;-63
2024/03/07 11:54:06;;;;;;;34.38;22.73;;;;;;;;;;5053278;28;20059;-63
2024/03/07 11:56:32;;;;;;;42.58;24.20;;;;;;;;;;5053468;28;20112;-63
2024/03/07 11:58:57;;;;;;;40.20;30.48;;;;;;;;;;5053527;28;20028;-63
2024/03/07 12:01:26;;;;;;;35.45;26.73;;;;;;;;;;5053502;28;20033;-63
2024/03/07 12:03:52;;;;;;;34.55;28.17;;;;;;;;;;5053515;28;20025;-63
2024/03/07 12:06:19;;;;;;;35.38;24.35;;;;;;;;;;5053801;28;20029;-63
2024/03/07 12:08:45;;;;;;;28.63;19.58;;;;;;;;;;5053189;28;20082;-63
2024/03/07 12:11:15;;;;;;;30.00;21.75;;;;;;;;;;5053164;28;20033;-63
2024/03/07 12:13:41;;;;;;;27.17;17.95;;;;;;;;;;5054177;28;20108;-63
2024/03/07 12:16:08;;;;;;;21.23;15.35;;;;;;;;;;5053945;28;20036;-63
2024/03/07 12:18:34;;;;;;;21.83;15.52;;;;;;;;;;5053846;28;20025;-63
2024/03/07 12:21:03;;;;;;;22.92;14.75;;;;;;;;;;5055173;28;20373;-63
2024/03/07 12:23:28;;;;;;;25.60;16.65;;;;;;;;;;5039167;28;20389;-63
2024/03/07 12:26:03;;;;;;;24.70;15.55;;;;;;;;;;5056926;28;20021;-63
2024/03/07 12:28:33;;;;;;;24.05;15.52;;;;;;;;;;5039066;28;20110;-63
2024/03/07 12:31:02;;;;;;;21.48;13.43;;;;;;;;;;5057323;28;20067;-63
2024/03/07 12:33:28;;;;;;;20.52;13.45;;;;;;;;;;5038954;28;20025;-63
2024/03/07 12:36:00;;;;;;;20.42;14.00;;;;;;;;;;5039332;28;20032;-63
2024/03/07 12:38:28;;;;;;;21.67;12.82;;;;;;;;;;5056718;28;20025;-63
2024/03/07 12:41:07;;;;;;;19.08;13.65;;;;;;;;;;5056886;28;20029;-63
2024/03/07 12:43:32;;;;;;;21.75;15.35;;;;;;;;;;5056860;28;20108;-63
2024/03/07 12:45:58;;;;;;;17.83;12.05;;;;;;;;;;5056846;28;20064;-63
2024/03/07 12:48:24;;;;;;;19.00;13.93;;;;;;;;;;5056325;28;20052;-63
2024/03/07 12:50:53;;;;;;;14.60;11.35;;;;;;;;;;5056199;28;20083;-63
2024/03/07 12:53:22;;;;;;;19.55;15.15;;;;;;;;;;5038687;28;20032;-63
2024/03/07 12:55:51;;;;;;;21.90;16.60;;;;;;;;;;5056335;28;20388;-63
2024/03/07 12:58:19;;;;;;;19.75;12.73;;;;;;;;;;5056615;28;20033;-63
2024/03/07 13:00:44;;;;;;;22.95;17.48;;;;;;;;;;5056541;28;20036;-63
2024/03/07 13:03:10;;;;;;;24.10;15.32;;;;;;;;;;5056517;28;20020;-63
2024/03/07 13:05:40;;;;;;;18.05;11.57;;;;;;;;;;5038300;28;20476;-63
2024/03/07 13:08:05;;;;;;;20.60;14.00;;;;;;;;;;5056471;28;20033;-63
2024/03/07 13:10:31;;;;;;;15.82;10.73;;;;;;;;;;5056039;28;20032;-63
2024/03/07 13:12:57;;;;;;;15.18;10.65;;;;;;;;;;5056317;28;20086;-63
2024/03/07 13:15:24;;;;;;;16.00;10.82;;;;;;;;;;5056459;28;20349;-58
2024/03/07 13:17:53;;;;;;;13.75;10.27;;;;;;;;;;5055989;28;20025;-58
2024/03/07 13:20:21;;;;;;;17.65;11.00;;;;;;;;;;5056177;28;20408;-58
2024/03/07 13:22:48;;;;;;;46.60;30.95;;;;;;;;;;5056137;28;20424;-58
2024/03/07 13:25:17;;;;;;;17.85;13.40;;;;;;;;;;5021373;28;20487;-58
2024/03/07 13:28:00;;;;;;;12.70;9.30;;;;;;;;;;5056063;28;20025;-58
2024/03/07 13:30:29;;;;;;;21.45;12.77;;;;;;;;;;5056242;28;20036;-58
2024/03/07 13:32:55;;;;;;;19.48;14.43;;;;;;;;;;5055107;28;20108;-58
2024/03/07 13:35:21;;;;;;;28.55;18.30;;;;;;;;;;5055857;28;20037;-58
2024/03/07 13:37:50;;;;;;;19.00;16.65;;;;;;;;;;5055856;28;20028;-59
2024/03/07 13:40:25;;;;;;;25.85;22.30;;;;;;;;;;5037704;28;20119;-58
2024/03/07 13:42:53;;;;;;;18.38;12.13;;;;;;;;;;5055774;28;20021;-58
2024/03/07 13:45:20;;;;;;;20.42;13.13;;;;;;;;;;5038214;28;20043;-59
2024/03/07 13:47:48;;;;;;;16.00;10.75;;;;;;;;;;5055443;28;20045;-59
2024/03/07 13:50:15;;;;;;;19.48;12.60;;;;;;;;;;5055893;28;20037;-58
2024/03/07 13:52:43;;;;;;;17.63;10.52;;;;;;;;;;5055575;28;20465;-58
2024/03/07 13:55:11;;;;;;;15.52;12.02;;;;;;;;;;5037328;28;20044;-59
2024/03/07 13:57:45;;;;;;;16.17;11.50;;;;;;;;;;5055495;28;20028;-59
2024/03/07 14:00:16;;;;;;;16.98;11.55;;;;;;;;;;5055736;28;20040;-59
2024/03/07 14:03:02;;;;;;;29.05;20.80;;;;;;;;;;5055620;28;20048;-59
2024/03/07 14:05:33;;;;;;;15.77;11.25;;;;;;;;;;5055336;28;20036;-58
2024/03/07 14:08:34;;;;;;;13.45;10.13;;;;;;;;;;5055301;28;20032;-59
2024/03/07 14:11:12;;;;;;;14.75;11.63;;;;;;;;;;4955054;29;20053;-59
2024/03/07 14:13:38;;;;;;;13.43;10.75;;;;;;;;;;5042507;28;20049;-59
2024/03/07 14:16:22;;;;;;;21.77;16.77;;;;;;;;;;5055292;28;20044;-59
2024/03/07 14:21:40;;;;;;;16.65;12.35;;;;;;;;;;5073571;28;20397;-59